Concord, MA (01742)

4:36 PM EDT on July 01, 2015 (GMT -0400)
Barretts Mill Historic District | | Change Station
CLOSE
Current Station
Personal Weather Station
Location: Concord, MA
Elevation: 134 ft
Nearby Weather Stations

Elev 134 ft 42.47 °N, 71.37 °W | Updated 3 seconds ago

Partly Cloudy
Partly Cloudy
77.2 °F
Feels Like 79 °F
N
2.9
Wind Variable Wind from SSW
Gusts 2.9 mph

Today
High -- | Low -- °F
--% Chance of Precip.
Yesterday
High -- | Low -- °F
Precip. -- in
5:11 AM 8:26 PM
Full, 100% visible
Pressure 29.71 in
Visibility 10.0 miles
Clouds Few 3700 ft
Heat Index 79 °F
Dew Point 69 °F
Humidity 76%
Rainfall 0.54 in
Snow Depth Not available.
UV 6 out of 12
Pollen 1.40 out of 12
Air Quality Not available.
Flu Activity Not available.
METAR KBED 011956Z 23012G20KT 10SM FEW037 27/18 A2967 RMK AO2 SLP059 T02670183

More Conditions Fewer Conditions

Pressure 29.71 in
Visibility 10.0 miles
Clouds Few 3700 ft
Heat Index 79 °F
Dew Point 69 °F
Humidity 76%
Rainfall 0.54 in
Snow Depth Not available.
UV 6 out of 12
Pollen 1.40 out of 12
Air Quality Not available.
Flu Activity Not available.
METAR KBED 011956Z 23012G20KT 10SM FEW037 27/18 A2967 RMK AO2 SLP059 T02670183

More Conditions Fewer Conditions

10-Day Weather Forecast

×

Almanac

Astronomy

Jul. 01, 2015 Rise Set
Actual Time
Civil Twilight
Nautical Twilight
Astronomical Twilight
Moon
Length of Visible Light
Length of Day
Tomorrow will be .
, % of the Moon is Illuminated

Today's Extremes

State Highs State Lows

Community

WunderPhotos

Upload Photos

1,834,275 photos uploaded!

WunderBlogs® & News

Nearby

Air Quality

  Air Quality AQ Index Pollutant
Not available.

Snow Depth

Station Depth Elevation

Earthquake Activity

City Distance Mag. Time & Date
Minimum magnitude displayed is 2.5.

Coastal Water Temperatures

Place Temperature

Stations

Nearby Weather Stations

Station Location Temp. Windchill Dew Point Humidity Wind Precip. Elev Updated Type